Time;durP1;ratioP1;P1;durP2;ratioP2;P2;SDS_P1;SDS_P2;PMS_P1;PMS_P2;Temp;Humidity;BMP_temperature;BMP_pressure;BME280_temperature;BME280_humidity;BME280_pressure;Samples;Min_cycle;Max_cycle;Signal;HPM_P1;HPM_P2
2021/03/18 00:01:04;;;;;;;11.50;7.73;;;;;;;-0.92;84.21;97132.00;5009939;28;20069;-68
2021/03/18 00:03:33;;;;;;;12.02;7.15;;;;;;;-1.15;85.07;97134.09;5008329;28;20053;-68
2021/03/18 00:06:01;;;;;;;10.25;6.43;;;;;;;-1.19;85.33;97137.72;4996942;28;20068;-68
2021/03/18 00:08:27;;;;;;;16.15;8.23;;;;;;;-1.31;85.23;97136.69;5009491;28;20036;-68
2021/03/18 00:10:57;;;;;;;12.38;7.80;;;;;;;-1.51;85.57;97140.28;5008717;28;20037;-68
2021/03/18 00:13:26;;;;;;;12.03;7.17;;;;;;;-1.70;86.40;97131.97;5009791;28;20046;-67
2021/03/18 00:15:53;;;;;;;13.40;7.60;;;;;;;-1.83;86.59;97124.16;5006124;28;20102;-68
2021/03/18 00:18:20;;;;;;;13.00;8.23;;;;;;;-1.82;86.20;97122.41;5006806;28;20050;-67
2021/03/18 00:20:47;;;;;;;13.60;7.68;;;;;;;-1.96;87.24;97120.59;5008853;28;20054;-68
2021/03/18 00:23:15;;;;;;;13.03;8.53;;;;;;;-1.86;85.79;97121.78;5008932;28;20045;-68
2021/03/18 00:25:41;;;;;;;16.33;10.88;;;;;;;-2.03;87.15;97129.44;5010708;28;20390;-67
2021/03/18 00:28:07;;;;;;;13.48;8.52;;;;;;;-1.95;86.81;97123.03;5007210;28;20038;-67
2021/03/18 00:30:33;;;;;;;20.55;9.25;;;;;;;-1.96;86.38;97121.41;5009009;28;20042;-68
2021/03/18 00:33:00;;;;;;;13.38;9.70;;;;;;;-1.96;86.72;97123.97;5005534;28;20066;-67
2021/03/18 00:35:28;;;;;;;14.38;7.85;;;;;;;-1.75;86.87;97128.84;5004142;28;20125;-68
2021/03/18 00:37:57;;;;;;;14.73;7.93;;;;;;;-1.74;86.14;97120.28;5006170;28;20050;-67
2021/03/18 00:40:26;;;;;;;13.98;8.45;;;;;;;-1.65;86.19;97118.06;5006686;28;20065;-67
2021/03/18 00:42:59;;;;;;;10.90;7.28;;;;;;;-1.47;84.39;97116.25;5006748;28;20046;-68
2021/03/18 00:45:28;;;;;;;14.00;8.43;;;;;;;-1.48;85.02;97124.00;5007322;28;20049;-68
2021/03/18 00:47:57;;;;;;;13.80;8.25;;;;;;;-1.36;84.61;97119.94;5006770;28;20118;-67
2021/03/18 00:50:31;;;;;;;13.27;9.07;;;;;;;-1.45;85.35;97113.63;5010910;28;20050;-67
2021/03/18 00:52:59;;;;;;;12.02;9.43;;;;;;;-1.38;85.47;97106.44;5006788;28;20105;-68
2021/03/18 00:55:26;;;;;;;15.30;8.77;;;;;;;-1.21;84.36;97114.00;5007435;28;20050;-68
2021/03/18 00:57:54;;;;;;;13.07;9.10;;;;;;;-1.22;84.62;97114.91;5010625;28;20069;-68
2021/03/18 01:00:44;;;;;;;13.90;8.63;;;;;;;-1.12;84.79;97105.00;5008014;28;20101;-68
2021/03/18 01:03:12;;;;;;;14.43;8.82;;;;;;;-1.09;84.21;97115.88;4993456;28;20084;-68
2021/03/18 01:06:03;;;;;;;11.90;7.55;;;;;;;-1.28;84.06;97062.44;5012427;28;20041;-67
2021/03/18 01:08:30;;;;;;;16.45;9.75;;;;;;;-1.24;85.54;97102.22;4978113;28;20065;-68
2021/03/18 01:11:00;;;;;;;13.40;7.30;;;;;;;-1.03;83.23;97092.53;5014601;28;20081;-67
2021/03/18 01:13:27;;;;;;;11.13;7.80;;;;;;;-0.93;83.57;97095.41;5011841;28;20066;-68
2021/03/18 01:15:57;;;;;;;11.32;7.60;;;;;;;-1.15;84.30;97095.78;5006030;28;20046;-67
2021/03/18 01:18:28;;;;;;;14.00;8.30;;;;;;;-1.48;85.60;97104.41;4994593;28;20052;-68
2021/03/18 01:20:55;;;;;;;11.85;6.80;;;;;;;-1.35;84.24;97111.41;5002934;28;20073;-67
2021/03/18 01:23:21;;;;;;;16.77;6.45;;;;;;;-1.21;83.44;97095.28;5011195;28;20121;-68
2021/03/18 01:25:48;;;;;;;10.32;7.05;;;;;;;-1.28;84.25;97092.25;5015549;28;20073;-67
2021/03/18 01:28:15;;;;;;;11.35;7.50;;;;;;;-1.40;84.33;97093.75;5012745;28;20129;-67
2021/03/18 01:30:51;;;;;;;11.88;6.82;;;;;;;-1.38;84.78;97089.38;4997474;28;20050;-68
2021/03/18 01:33:18;;;;;;;14.10;7.55;;;;;;;-1.44;84.52;97082.91;5012831;28;20502;-67
2021/03/18 01:35:44;;;;;;;13.07;7.50;;;;;;;-1.49;85.35;97087.41;5015240;28;20106;-68
2021/03/18 01:38:10;;;;;;;13.27;7.88;;;;;;;-1.36;84.87;97092.66;5011208;28;20040;-68
2021/03/18 01:40:37;;;;;;;12.73;8.05;;;;;;;-1.46;85.61;97089.81;4998344;28;20058;-68
2021/03/18 01:43:03;;;;;;;10.30;6.82;;;;;;;-1.30;83.95;97071.09;5011978;28;20055;-68
2021/03/18 01:45:29;;;;;;;10.85;6.90;;;;;;;-1.10;83.96;97092.94;5014830;28;20675;-68
2021/03/18 01:47:59;;;;;;;13.50;8.57;;;;;;;-1.32;84.39;97093.34;5011050;28;20581;-68
2021/03/18 01:50:29;;;;;;;13.27;7.38;;;;;;;-1.37;84.31;97095.34;5013859;28;20060;-69
2021/03/18 01:52:57;;;;;;;9.82;6.93;;;;;;;-1.32;83.92;97093.34;5012345;28;20065;-69
2021/03/18 01:55:29;;;;;;;10.88;7.22;;;;;;;-1.11;83.63;97093.88;5012626;28;20045;-67
2021/03/18 01:57:56;;;;;;;10.73;6.82;;;;;;;-1.03;83.40;97101.94;5015215;28;20038;-68
2021/03/18 02:00:25;;;;;;;14.70;7.78;;;;;;;-1.29;83.85;97096.56;4997014;28;20314;-67
2021/03/18 02:02:56;;;;;;;13.85;7.22;;;;;;;-1.25;83.35;97089.53;5009785;28;20054;-67
2021/03/18 02:05:24;;;;;;;10.18;6.57;;;;;;;-1.09;82.81;97082.66;4998390;28;20049;-68
2021/03/18 02:07:52;;;;;;;11.82;7.53;;;;;;;-1.12;83.07;97087.09;4993475;28;20116;-68
2021/03/18 02:10:26;;;;;;;12.68;8.27;;;;;;;-1.08;83.29;97079.22;5012588;28;20121;-68
2021/03/18 02:12:53;;;;;;;14.85;7.38;;;;;;;-1.13;82.72;97085.47;5012507;28;20148;-67
2021/03/18 02:15:24;;;;;;;11.13;7.37;;;;;;;-1.08;82.14;97081.75;5013775;28;20044;-68
2021/03/18 02:17:50;;;;;;;11.32;7.35;;;;;;;-1.04;82.01;97080.69;4983578;28;20038;-67
2021/03/18 02:21:01;;;;;;;11.85;6.85;;;;;;;-0.86;81.29;97090.75;5014120;28;20055;-68
2021/03/18 02:23:27;;;;;;;10.02;7.20;;;;;;;-0.89;81.66;97083.25;5014824;28;20058;-67
2021/03/18 02:26:31;;;;;;;11.13;7.57;;;;;;;-0.89;82.14;97080.69;5014370;28;20116;-68
2021/03/18 02:29:18;;;;;;;14.90;8.35;;;;;;;-1.10;82.12;97078.47;5012329;28;20072;-67
2021/03/18 02:32:02;;;;;;;11.90;8.40;;;;;;;-0.93;81.41;97082.63;5011175;28;20092;-68
2021/03/18 02:35:06;;;;;;;12.13;7.38;;;;;;;-1.04;81.61;97087.50;5009811;28;20493;-68
2021/03/18 02:37:38;;;;;;;13.25;7.55;;;;;;;-1.02;81.10;97080.56;5009685;28;20046;-68
2021/03/18 02:40:10;;;;;;;15.93;8.73;;;;;;;-1.13;82.15;97093.97;4996069;28;20400;-68
2021/03/18 02:42:41;;;;;;;13.98;8.32;;;;;;;-1.03;82.00;97086.59;5013804;28;20129;-68
2021/03/18 02:45:09;;;;;;;17.25;8.23;;;;;;;-1.19;82.17;97089.19;5008417;28;20168;-68
2021/03/18 02:47:37;;;;;;;10.95;7.50;;;;;;;-1.03;81.46;97089.16;5008555;28;20052;-68
2021/03/18 02:50:06;;;;;;;12.38;7.15;;;;;;;-0.83;80.24;97088.03;5007971;28;20077;-68
2021/03/18 02:52:33;;;;;;;13.57;8.00;;;;;;;-0.94;81.05;97090.38;5010146;28;20049;-68
2021/03/18 02:55:06;;;;;;;11.73;7.20;;;;;;;-0.83;79.92;97088.03;5009120;28;20050;-67
2021/03/18 02:57:35;;;;;;;13.40;8.73;;;;;;;-0.97;81.43;97087.97;5006712;28;20097;-68
2021/03/18 03:00:05;;;;;;;11.35;7.85;;;;;;;-0.96;81.11;97095.56;5007834;28;20034;-68
2021/03/18 03:02:32;;;;;;;12.85;7.65;;;;;;;-0.94;81.32;97087.81;5009928;28;20095;-68
2021/03/18 03:05:01;;;;;;;13.93;8.05;;;;;;;-0.84;80.64;97094.06;5009757;28;20049;-68
2021/03/18 03:07:29;;;;;;;12.77;7.40;;;;;;;-0.85;80.50;97094.94;5013186;28;20482;-68
2021/03/18 03:09:59;;;;;;;14.65;9.02;;;;;;;-1.09;81.87;97085.22;5007381;28;20045;-67
2021/03/18 03:12:28;;;;;;;13.77;8.15;;;;;;;-0.98;81.45;97094.00;5010626;28;20454;-69
2021/03/18 03:14:56;;;;;;;16.02;8.63;;;;;;;-0.98;81.57;97089.72;5010366;28;20045;-68
2021/03/18 03:17:27;;;;;;;14.32;8.50;;;;;;;-0.95;80.99;97097.22;5011731;28;20152;-68
2021/03/18 03:19:58;;;;;;;16.83;9.25;;;;;;;-1.21;82.12;97106.31;5007438;28;20135;-68
2021/03/18 03:22:24;;;;;;;14.73;9.00;;;;;;;-1.14;81.89;97096.59;4993292;28;20457;-67
2021/03/18 03:24:53;;;;;;;15.80;9.50;;;;;;;-1.08;81.47;97102.22;5013076;28;20467;-67
2021/03/18 03:27:23;;;;;;;17.42;9.48;;;;;;;-1.07;81.53;97092.81;5011083;28;20046;-68
2021/03/18 03:29:49;;;;;;;13.93;8.90;;;;;;;-1.13;82.18;97098.25;4995955;28;20052;-68
2021/03/18 03:32:16;;;;;;;17.15;10.20;;;;;;;-1.17;82.35;97102.69;5007538;28;20037;-68
2021/03/18 03:34:42;;;;;;;17.35;8.73;;;;;;;-1.15;81.74;97105.19;5009032;28;20050;-67
2021/03/18 03:37:10;;;;;;;21.25;11.07;;;;;;;-1.34;82.59;97105.38;5008846;28;20057;-68
2021/03/18 03:39:38;;;;;;;18.50;10.85;;;;;;;-1.34;83.30;97103.63;4996633;28;20113;-67
2021/03/18 03:42:05;;;;;;;;;;;;;;;-1.19;83.00;97109.63;5011927;28;20058;-68
2021/03/18 03:44:32;;;;;;;20.38;11.30;;;;;;;-1.30;82.76;97094.06;4994273;28;19931;-67
2021/03/18 03:46:59;;;;;;;18.40;10.77;;;;;;;-1.23;81.88;97097.94;4994127;28;20105;-68
2021/03/18 03:49:25;;;;;;;14.00;9.48;;;;;;;-1.12;82.90;97105.00;5008267;28;20042;-68
2021/03/18 03:52:06;;;;;;;17.40;10.07;;;;;;;-1.32;82.15;97106.09;5008285;28;20050;-68
2021/03/18 03:54:37;;;;;;;19.48;10.52;;;;;;;-1.03;81.83;97115.53;5009228;28;20375;-68
2021/03/18 03:57:14;;;;;;;17.70;10.82;;;;;;;-0.92;81.61;97112.38;5007596;28;20054;-68
2021/03/18 03:59:44;;;;;;;22.42;11.88;;;;;;;-1.10;82.14;97118.50;5007576;28;20038;-70
2021/03/18 04:02:13;;;;;;;18.42;11.05;;;;;;;-1.03;81.78;97115.53;5010997;28;20053;-69
2021/03/18 04:04:47;;;;;;;18.25;10.68;;;;;;;-1.11;82.38;97112.59;5006337;28;20050;-67
2021/03/18 04:07:18;;;;;;;21.52;11.48;;;;;;;-0.95;82.16;97120.22;5010025;28;20456;-68
2021/03/18 04:09:46;;;;;;;21.55;12.30;;;;;;;-1.19;82.51;97130.06;5004501;28;20141;-68
2021/03/18 04:12:15;;;;;;;21.65;11.73;;;;;;;-1.06;82.85;97125.09;5008886;28;20541;-68
2021/03/18 04:14:47;;;;;;;17.67;11.18;;;;;;;-0.90;81.41;97127.63;5006638;28;20105;-68
2021/03/18 04:17:15;;;;;;;20.25;11.70;;;;;;;-0.89;82.03;97125.00;5009604;28;20117;-71
2021/03/18 04:19:50;;;;;;;24.63;12.40;;;;;;;-1.00;82.64;97137.53;5007237;28;20042;-68
2021/03/18 04:22:18;;;;;;;20.77;11.50;;;;;;;-0.97;82.42;97134.81;5009692;28;20045;-68
2021/03/18 04:24:48;;;;;;;26.45;13.73;;;;;;;-0.97;83.06;97124.59;5007213;28;20046;-68
2021/03/18 04:27:16;;;;;;;24.20;13.40;;;;;;;-0.97;82.63;97128.88;4994675;28;20052;-67
2021/03/18 04:29:43;;;;;;;26.98;12.45;;;;;;;-1.06;83.76;97125.09;4990521;28;20143;-70
2021/03/18 04:32:11;;;;;;;25.85;13.05;;;;;;;-1.08;83.96;97129.47;5009373;28;20057;-68
2021/03/18 04:34:51;;;;;;;34.03;15.63;;;;;;;-1.09;84.33;97126.09;5009280;28;20054;-68
2021/03/18 04:37:18;;;;;;;30.20;15.82;;;;;;;-1.08;83.60;97126.91;5011791;28;20687;-68
2021/03/18 04:39:45;;;;;;;29.85;14.48;;;;;;;-1.16;83.93;97124.81;5009436;28;20061;-68
2021/03/18 04:42:12;;;;;;;28.38;15.18;;;;;;;-1.28;83.76;97117.81;4993803;28;20066;-68
2021/03/18 04:44:43;;;;;;;31.98;15.38;;;;;;;-1.16;84.18;97117.13;5009751;28;20073;-69
2021/03/18 04:47:10;;;;;;;29.90;16.00;;;;;;;-1.17;84.46;97127.44;5007789;28;20057;-68
2021/03/18 04:49:38;;;;;;;25.30;13.43;;;;;;;-0.93;82.83;97133.75;5003310;28;20530;-67
2021/03/18 04:52:04;;;;;;;28.30;14.57;;;;;;;-1.01;82.63;97129.97;5011191;28;20046;-68
2021/03/18 04:54:30;;;;;;;24.02;13.35;;;;;;;-1.15;83.61;97131.53;4992833;28;20046;-68
2021/03/18 04:56:57;;;;;;;28.83;14.63;;;;;;;-1.48;83.67;97140.16;5011123;28;20038;-68
2021/03/18 04:59:24;;;;;;;32.47;16.40;;;;;;;-1.57;84.93;97134.69;4996436;28;20078;-67
2021/03/18 05:01:54;;;;;;;26.83;14.57;;;;;;;-1.36;84.37;97133.53;5014043;28;20069;-68
2021/03/18 05:04:21;;;;;;;30.13;15.40;;;;;;;-1.26;83.42;97132.13;4996043;28;20057;-68
2021/03/18 05:06:50;;;;;;;33.53;15.32;;;;;;;-1.16;83.11;97135.03;5012372;28;20052;-67
2021/03/18 05:09:17;;;;;;;26.83;15.60;;;;;;;-1.31;83.94;97128.19;5013422;28;20069;-68
2021/03/18 05:11:44;;;;;;;35.13;17.08;;;;;;;-1.33;84.40;97135.13;5013737;28;20052;-67
2021/03/18 05:14:11;;;;;;;34.40;17.40;;;;;;;-1.36;84.10;97123.31;5012854;28;20041;-68
2021/03/18 05:16:38;;;;;;;30.75;16.27;;;;;;;-1.11;82.97;97134.75;5016851;28;20097;-68
2021/03/18 05:19:08;;;;;;;31.42;16.73;;;;;;;-1.17;82.33;97135.09;5015595;28;20044;-68
2021/03/18 05:21:37;;;;;;;32.55;17.05;;;;;;;-1.27;83.11;97132.22;5017419;28;20680;-68
2021/03/18 05:24:05;;;;;;;38.03;17.77;;;;;;;-1.42;83.69;97127.94;5014758;28;20060;-68
2021/03/18 05:26:33;;;;;;;34.38;18.05;;;;;;;-1.33;83.31;97127.47;4996576;28;20034;-67
2021/03/18 05:29:00;;;;;;;34.60;16.77;;;;;;;-1.16;82.71;97129.09;4998264;28;20042;-68
2021/03/18 05:31:26;;;;;;;34.97;17.25;;;;;;;-1.23;82.22;97118.38;5014954;28;20097;-68
2021/03/18 05:33:53;;;;;;;33.75;17.25;;;;;;;-1.37;82.73;97128.53;5013779;28;20052;-67
2021/03/18 05:36:19;;;;;;;44.30;19.35;;;;;;;-1.16;82.87;97134.19;4996912;28;20072;-69
2021/03/18 05:38:47;;;;;;;30.30;16.95;;;;;;;-1.13;82.27;97131.47;5016732;28;20100;-68
2021/03/18 05:41:13;;;;;;;30.95;16.15;;;;;;;-1.05;82.65;97132.69;4998754;28;20607;-69
2021/03/18 05:43:40;;;;;;;37.33;18.35;;;;;;;-0.99;82.13;97134.09;5013657;28;20085;-69
2021/03/18 05:46:07;;;;;;;42.97;18.77;;;;;;;-1.00;81.99;97141.81;5015874;28;20041;-69
2021/03/18 05:48:34;;;;;;;34.15;17.90;;;;;;;-0.89;81.51;97140.34;5016765;28;20053;-69
2021/03/18 05:51:03;;;;;;;32.92;17.48;;;;;;;-0.92;81.52;97139.66;5015596;28;20120;-69
2021/03/18 05:53:30;;;;;;;35.40;18.80;;;;;;;-0.96;81.00;97148.41;5014883;28;20494;-68
2021/03/18 05:55:57;;;;;;;34.13;18.00;;;;;;;-0.94;81.07;97138.94;5011896;28;20070;-69
2021/03/18 05:58:25;;;;;;;34.67;17.35;;;;;;;-0.87;81.16;97135.13;5011293;28;20122;-70
2021/03/18 06:00:52;;;;;;;32.47;17.85;;;;;;;-0.68;80.04;97145.97;4998278;28;20042;-68
2021/03/18 06:03:19;;;;;;;35.78;18.95;;;;;;;-0.76;81.37;97137.06;5010256;28;20057;-68
2021/03/18 06:05:59;;;;;;;;;;;;;;;-0.53;80.12;97141.72;4998624;28;20042;-68
2021/03/18 06:08:25;;;;;;;33.77;17.63;;;;;;;-0.51;80.09;97141.59;5014026;28;20013;-71
2021/03/18 06:10:55;;;;;;;32.13;16.65;;;;;;;-0.50;79.85;97148.38;5012954;28;20385;-71
2021/03/18 06:13:21;;;;;;;33.05;19.17;;;;;;;-0.49;80.17;97132.09;5016405;28;20042;-70
2021/03/18 06:15:47;;;;;;;32.45;17.73;;;;;;;-0.29;78.82;97141.19;5015247;28;20501;-68
2021/03/18 06:18:14;;;;;;;33.85;17.65;;;;;;;-0.45;79.34;97141.25;4994252;28;20385;-66
2021/03/18 06:20:48;;;;;;;34.97;19.95;;;;;;;-0.25;78.29;97135.81;5010931;28;20104;-68
2021/03/18 06:23:15;;;;;;;32.53;17.02;;;;;;;-0.25;79.10;97133.25;5007970;28;20106;-66
2021/03/18 06:25:41;;;;;;;34.30;18.35;;;;;;;-0.32;79.39;97137.06;4996566;28;20398;-66
2021/03/18 06:28:11;;;;;;;36.15;18.05;;;;;;;-0.15;78.52;97133.50;5004408;28;20084;-67
2021/03/18 06:30:40;;;;;;;32.42;18.65;;;;;;;0.07;77.97;97133.06;5010185;28;20046;-66
2021/03/18 06:33:27;;;;;;;34.80;19.40;;;;;;;-0.03;78.38;97130.22;5010764;28;20114;-67
2021/03/18 06:36:18;;;;;;;41.10;22.50;;;;;;;0.52;76.93;97132.94;5007948;28;20593;-67
2021/03/18 06:38:57;;;;;;;38.28;21.73;;;;;;;0.98;73.97;97133.44;4992110;28;20105;-66
2021/03/18 06:41:30;;;;;;;33.28;18.38;;;;;;;1.41;72.23;97134.97;5006287;28;20438;-67
2021/03/18 06:43:56;;;;;;;40.38;23.20;;;;;;;1.55;71.41;97128.94;5010085;28;20113;-66
2021/03/18 06:46:23;;;;;;;96.70;44.67;;;;;;;2.14;70.34;97134.38;4992940;28;20061;-66
2021/03/18 06:48:50;;;;;;;37.17;21.85;;;;;;;2.13;69.60;97119.06;4993649;28;20042;-66
2021/03/18 06:51:26;;;;;;;33.47;20.50;;;;;;;2.36;70.57;97125.19;5008179;28;20041;-65
2021/03/18 06:53:56;;;;;;;47.30;28.23;;;;;;;2.00;70.95;97130.16;5010826;28;20406;-66
2021/03/18 06:56:26;;;;;;;30.35;18.17;;;;;;;1.64;71.67;97136.03;5005761;28;20050;-66
2021/03/18 06:58:52;;;;;;;30.27;18.63;;;;;;;1.31;73.42;97139.88;5013274;28;20042;-66
2021/03/18 07:01:23;;;;;;;32.65;20.02;;;;;;;1.28;73.13;97141.81;5005263;28;20148;-66
2021/03/18 07:04:04;;;;;;;31.80;17.48;;;;;;;1.14;72.82;97138.41;5008871;28;20058;-66
2021/03/18 07:06:51;;;;;;;34.92;18.30;;;;;;;1.13;74.39;97147.00;5009511;28;20054;-65
2021/03/18 07:09:17;;;;;;;27.48;17.30;;;;;;;1.43;73.02;97146.75;4992774;28;20057;-66
2021/03/18 07:11:47;;;;;;;32.05;18.23;;;;;;;0.83;73.07;97142.09;5005790;28;20108;-65
2021/03/18 07:14:14;;;;;;;31.35;18.80;;;;;;;1.70;72.66;97145.88;5006334;28;20061;-65
2021/03/18 07:16:48;;;;;;;33.83;18.63;;;;;;;2.37;70.89;97134.53;4975154;28;20058;-66
2021/03/18 07:19:25;;;;;;;28.80;18.25;;;;;;;2.43;68.57;97144.38;5005922;28;20587;-66
2021/03/18 07:21:52;;;;;;;29.58;18.20;;;;;;;3.09;67.39;97134.63;5003419;28;20387;-65
2021/03/18 07:24:21;;;;;;;32.78;20.20;;;;;;;2.38;69.71;97133.63;4989498;28;20050;-66
2021/03/18 07:26:47;;;;;;;27.02;17.17;;;;;;;3.58;66.10;97140.50;5005132;28;20085;-66
2021/03/18 07:29:27;;;;;;;28.63;19.00;;;;;;;2.22;69.34;97133.84;4989089;28;20745;-66
2021/03/18 07:31:53;;;;;;;32.63;20.20;;;;;;;2.67;67.38;97138.47;4992065;28;20450;-66
2021/03/18 07:34:20;;;;;;;33.33;20.70;;;;;;;2.08;69.28;97142.50;5004684;28;20049;-66
2021/03/18 07:37:04;;;;;;;29.85;19.02;;;;;;;2.19;69.26;97146.91;5002888;28;20518;-66
2021/03/18 07:39:30;;;;;;;27.52;18.45;;;;;;;2.83;70.20;97139.03;5007533;28;20034;-65
2021/03/18 07:41:58;;;;;;;33.10;19.60;;;;;;;2.42;68.47;97146.13;5003234;28;20073;-66
2021/03/18 07:44:26;;;;;;;33.63;20.25;;;;;;;2.34;69.49;97147.59;4989554;28;20045;-66
2021/03/18 07:46:53;;;;;;;31.85;19.77;;;;;;;2.30;68.13;97138.47;4989861;28;20068;-65
2021/03/18 07:49:24;;;;;;;30.08;21.35;;;;;;;2.26;68.73;97144.72;4990362;28;20508;-68
2021/03/18 07:51:53;;;;;;;28.38;18.35;;;;;;;2.48;68.66;97150.03;5006822;28;20097;-66
2021/03/18 07:54:21;;;;;;;26.42;18.75;;;;;;;1.66;69.88;97141.88;5002482;28;20043;-66
2021/03/18 07:56:52;;;;;;;27.80;18.00;;;;;;;2.14;68.57;97147.22;5004492;28;20061;-67
2021/03/18 07:59:20;;;;;;;34.03;22.00;;;;;;;2.19;70.34;97140.00;5007084;28;20117;-66
2021/03/18 08:01:47;;;;;;;33.03;20.02;;;;;;;2.36;69.21;97138.03;4992628;28;20058;-66
2021/03/18 08:04:15;;;;;;;29.70;18.42;;;;;;;2.59;69.08;97144.97;4991861;28;20046;-66
2021/03/18 08:06:50;;;;;;;30.00;18.88;;;;;;;2.46;70.06;97146.75;4992565;28;20084;-66
2021/03/18 08:09:38;;;;;;;28.38;19.13;;;;;;;1.99;70.86;97154.22;5005260;28;20102;-66
2021/03/18 08:12:05;;;;;;;27.27;18.02;;;;;;;2.55;69.52;97143.53;5009693;28;20049;-67
2021/03/18 08:14:32;;;;;;;27.65;19.23;;;;;;;2.55;67.47;97142.72;5007674;28;20585;-66
2021/03/18 08:16:58;;;;;;;28.50;18.35;;;;;;;2.47;68.32;97150.94;5006874;28;20056;-66
2021/03/18 08:19:39;;;;;;;30.45;20.08;;;;;;;2.26;68.38;97148.13;5006039;28;20474;-66
2021/03/18 08:22:29;;;;;;;30.73;19.63;;;;;;;2.04;68.26;97156.47;4989761;28;20083;-66
2021/03/18 08:25:24;;;;;;;30.73;19.83;;;;;;;2.38;69.36;97154.16;5006069;28;20512;-66
2021/03/18 08:27:50;;;;;;;39.85;21.83;;;;;;;3.25;65.18;97157.47;5008815;28;20038;-66
2021/03/18 08:30:22;;;;;;;28.45;19.38;;;;;;;2.54;67.07;97151.34;5009015;28;20061;-67
2021/03/18 08:32:49;;;;;;;29.88;18.15;;;;;;;2.87;64.85;97145.59;4991331;28;20382;-66
2021/03/18 08:35:28;;;;;;;27.55;19.55;;;;;;;3.37;63.70;97155.75;4990356;28;20073;-67
2021/03/18 08:38:16;;;;;;;26.45;17.15;;;;;;;4.49;61.43;97137.88;5007333;28;20560;-67
2021/03/18 08:40:59;;;;;;;32.70;21.85;;;;;;;3.77;62.83;97145.13;5007861;28;20056;-66
2021/03/18 08:43:25;;;;;;;27.42;19.45;;;;;;;4.94;62.37;97147.28;5002348;28;20131;-66
2021/03/18 08:45:52;;;;;;;30.15;21.63;;;;;;;5.13;60.78;97145.81;5007251;28;20045;-66
2021/03/18 08:48:20;;;;;;;27.58;20.05;;;;;;;3.45;63.55;97146.56;5005926;28;20132;-66
2021/03/18 08:50:49;;;;;;;24.25;18.00;;;;;;;4.42;60.89;97143.59;4992114;28;20078;-67
2021/03/18 08:53:31;;;;;;;21.00;15.35;;;;;;;5.83;56.94;97141.81;5004156;28;20069;-67
2021/03/18 08:55:58;;;;;;;23.10;16.45;;;;;;;5.82;55.70;97142.75;5001531;28;20041;-67
2021/03/18 08:58:24;;;;;;;22.90;16.27;;;;;;;4.16;58.96;97140.47;5005603;28;20508;-67
2021/03/18 09:00:51;;;;;;;24.08;17.23;;;;;;;5.03;59.93;97133.63;4992245;28;20056;-66
2021/03/18 09:03:19;;;;;;;22.65;16.48;;;;;;;4.61;59.44;97138.66;5006954;28;20049;-67
2021/03/18 09:05:57;;;;;;;21.33;15.40;;;;;;;4.89;57.75;97141.66;4993183;28;20077;-67
2021/03/18 09:08:26;;;;;;;22.10;15.30;;;;;;;4.96;57.36;97139.41;4990755;28;20354;-67
2021/03/18 09:10:54;;;;;;;23.17;16.05;;;;;;;4.97;58.73;97136.69;4989590;28;20042;-66
2021/03/18 09:13:22;;;;;;;26.50;17.15;;;;;;;5.77;57.84;97126.84;5003985;28;20038;-67
2021/03/18 09:15:49;;;;;;;;;;;;;;;5.12;61.03;97134.66;4992561;28;20077;-66
2021/03/18 09:18:22;;;;;;;65.45;32.38;;;;;;;5.88;58.91;97130.19;5009754;28;20264;-68
2021/03/18 09:20:55;;;;;;;30.38;18.88;;;;;;;7.37;54.23;97119.13;4990145;28;20053;-67
2021/03/18 09:23:25;;;;;;;17.88;13.98;;;;;;;5.76;54.50;97128.59;5007444;28;20433;-66
2021/03/18 09:25:56;;;;;;;19.85;15.02;;;;;;;6.57;55.80;97127.88;5008487;28;20042;-66
2021/03/18 09:28:23;;;;;;;29.88;18.80;;;;;;;7.01;55.09;97121.44;4990100;28;20061;-67
2021/03/18 09:30:56;;;;;;;19.00;14.10;;;;;;;7.28;50.36;97125.09;5004463;28;20040;-67
2021/03/18 09:33:32;;;;;;;18.95;13.82;;;;;;;7.19;51.73;97118.97;5006881;28;20054;-67
2021/03/18 09:36:03;;;;;;;43.25;27.15;;;;;;;6.79;55.37;97116.50;4989855;28;20050;-67
2021/03/18 09:38:53;;;;;;;28.75;19.73;;;;;;;4.64;59.20;97120.38;5005275;28;20478;-67
2021/03/18 09:41:26;;;;;;;18.40;13.60;;;;;;;5.61;56.45;97117.78;4989831;28;20042;-67
2021/03/18 09:44:02;;;;;;;19.88;13.38;;;;;;;6.09;55.78;97119.81;5004158;28;20050;-67
2021/03/18 09:46:29;;;;;;;17.38;13.00;;;;;;;4.67;59.58;97117.53;5006437;28;20042;-67
2021/03/18 09:48:56;;;;;;;19.48;13.80;;;;;;;5.26;58.44;97118.06;5009142;28;20137;-67
2021/03/18 09:51:22;;;;;;;16.53;12.10;;;;;;;4.89;57.63;97108.13;4996113;28;20081;-66
2021/03/18 09:54:05;;;;;;;15.18;11.57;;;;;;;4.59;56.14;97104.47;5012116;28;20050;-67
2021/03/18 09:56:45;;;;;;;16.92;12.65;;;;;;;4.59;58.73;97107.03;5010216;28;20544;-67
2021/03/18 09:59:11;;;;;;;17.25;12.98;;;;;;;5.58;56.07;97109.44;5008575;28;20041;-66
2021/03/18 10:01:38;;;;;;;17.52;13.45;;;;;;;6.38;54.90;97092.44;5011407;28;20084;-67
2021/03/18 10:04:09;;;;;;;16.33;12.35;;;;;;;6.21;53.42;97097.28;5009060;28;20052;-66
2021/03/18 10:06:40;;;;;;;15.05;12.15;;;;;;;6.33;53.58;97095.44;4993466;28;20049;-66
2021/03/18 10:09:27;;;;;;;15.23;11.68;;;;;;;6.33;54.37;97103.19;5008417;28;20042;-67
2021/03/18 10:11:53;;;;;;;15.20;11.38;;;;;;;6.78;51.83;97089.81;5012093;28;20053;-67
2021/03/18 10:14:21;;;;;;;19.05;13.68;;;;;;;6.18;55.95;97094.97;5006581;28;20061;-67
2021/03/18 10:17:07;;;;;;;15.00;11.57;;;;;;;5.82;51.75;97089.34;5009345;28;20044;-66
2021/03/18 10:19:37;;;;;;;13.93;10.38;;;;;;;6.92;52.63;97086.00;5004621;28;20046;-67
2021/03/18 10:22:09;;;;;;;19.25;13.82;;;;;;;6.58;54.60;97085.53;5009225;28;20044;-67
2021/03/18 10:24:36;;;;;;;18.17;13.30;;;;;;;7.17;52.26;97079.44;5006543;28;20092;-67
2021/03/18 10:27:15;;;;;;;17.08;11.75;;;;;;;7.34;51.57;97077.94;5007363;28;20054;-67
2021/03/18 10:29:43;;;;;;;13.80;11.07;;;;;;;7.77;49.98;97076.66;4992590;28;20048;-66
2021/03/18 10:32:14;;;;;;;15.45;10.60;;;;;;;7.29;50.16;97072.38;4991505;28;20129;-66
2021/03/18 10:34:53;;;;;;;13.27;10.75;;;;;;;7.82;49.05;97076.22;5004429;28;20097;-66
2021/03/18 10:37:32;;;;;;;11.13;8.95;;;;;;;6.83;48.28;97071.28;5006464;28;20080;-66
2021/03/18 10:40:23;;;;;;;9.60;8.10;;;;;;;9.39;44.54;97075.16;5003850;28;20157;-68
2021/03/18 10:42:51;;;;;;;11.07;8.63;;;;;;;7.91;43.31;97060.63;5008537;28;20045;-66
2021/03/18 10:45:20;;;;;;;12.85;10.65;;;;;;;7.86;48.06;97065.44;5007761;28;20053;-67
2021/03/18 10:47:47;;;;;;;15.75;11.30;;;;;;;7.65;48.61;97057.03;5005047;28;20050;-67
2021/03/18 10:50:16;;;;;;;14.10;11.63;;;;;;;13.24;40.50;97056.88;5011626;28;20100;-66
2021/03/18 10:52:57;;;;;;;16.08;12.07;;;;;;;14.93;34.89;97045.91;4993336;28;20049;-67
2021/03/18 10:55:30;;;;;;;13.85;10.98;;;;;;;13.15;38.55;97050.09;4992381;28;20038;-66
2021/03/18 10:58:02;;;;;;;14.70;11.40;;;;;;;19.18;26.28;97045.00;5009216;28;20053;-67
2021/03/18 11:00:33;;;;;;;10.95;9.85;;;;;;;25.23;22.64;97041.81;5006141;28;20733;-68
2021/03/18 11:03:02;;;;;;;10.77;8.50;;;;;;;14.77;29.82;97045.09;5007209;28;20044;-67
2021/03/18 11:05:31;;;;;;;10.40;9.00;;;;;;;10.91;37.07;97043.31;5007412;28;20053;-66
2021/03/18 11:07:58;;;;;;;40.85;27.92;;;;;;;8.84;45.13;97041.56;5005775;28;20120;-67
2021/03/18 11:10:30;;;;;;;12.68;11.05;;;;;;;8.23;46.06;97046.44;5008442;28;20050;-67
2021/03/18 11:13:00;;;;;;;21.75;14.63;;;;;;;10.21;40.91;97041.00;5009165;28;20038;-68
2021/03/18 11:16:11;;;;;;;15.40;11.70;;;;;;;12.51;36.02;97026.84;4991397;28;20054;-70
2021/03/18 11:18:43;;;;;;;10.02;8.82;;;;;;;9.19;41.51;97027.75;4996359;28;20065;-67
2021/03/18 11:21:29;;;;;;;12.10;8.30;;;;;;;8.60;45.80;97030.00;5005906;28;20050;-67
2021/03/18 11:24:03;;;;;;;10.38;7.32;;;;;;;14.64;32.27;97016.16;5006996;28;20054;-66
2021/03/18 11:26:29;;;;;;;8.52;6.93;;;;;;;9.00;41.58;97023.56;5007092;28;20469;-67
2021/03/18 11:28:58;;;;;;;8.15;6.90;;;;;;;7.04;44.57;97022.78;5005762;28;20033;-67
2021/03/18 11:31:27;;;;;;;12.10;8.95;;;;;;;6.56;46.23;97022.78;5004244;28;20046;-66
2021/03/18 11:33:55;;;;;;;9.48;7.55;;;;;;;8.00;44.99;97017.50;5003671;28;20081;-66
2021/03/18 11:36:22;;;;;;;16.20;11.80;;;;;;;7.73;45.59;97008.72;5006888;28;20050;-66
2021/03/18 11:38:49;;;;;;;9.40;7.80;;;;;;;8.60;42.47;97008.44;4993230;28;20052;-66
2021/03/18 11:41:15;;;;;;;9.07;7.32;;;;;;;7.67;43.33;97003.31;4996685;28;20052;-68